< Typhoon 200622 2006 Season Typhoon 200701 >
Typhoon 200623 (TRAMI)
General InformationTrack Information on Google MapsDetailed Wind InformationList of All Images || NewsDisaster Info.WeblogTrackbackTyphoon FrontResourceGoogle EarthGE AnimationAtom FeedGeoJSON
Detalied Best Track (Time Zone = UTC)
Year Month Day Hour Lat. Long. Pressure (hPa) Wind (kt) Class Image
2006 12 15 06 7.7 156.9 1006 0 2 Image
2006 12 15 12 8.5 154.5 1008 0 2 Image
2006 12 15 18 9.1 152.1 1008 0 2 Image
2006 12 16 00 9.5 149.8 1008 0 2 Image
2006 12 16 06 9.6 147.8 1006 0 2 Image
2006 12 16 12 9.7 146.0 1008 0 2 Image
2006 12 16 18 10.0 143.9 1006 0 2 Image
2006 12 17 00 10.7 141.4 1006 0 2 Image
2006 12 17 06 12.0 139.9 1004 0 2 Image
2006 12 17 12 13.4 138.4 1000 35 3 Image
2006 12 17 18 14.9 137.4 1000 35 3 Image
2006 12 18 00 15.7 136.5 1000 35 3 Image
2006 12 18 06 16.0 135.3 1000 35 3 Image
2006 12 18 12 15.1 133.4 1000 35 3 Image
2006 12 18 18 14.3 131.8 1004 0 2 Image
2006 12 19 00 13.6 130.3 1008 0 2 Image
2006 12 19 06 13.2 129.1 1008 0 2 Image
2006 12 19 12 12.8 127.7 1008 0 2 Image
2006 12 19 18 12.5 126.3 1008 0 2 Image
2006 12 20 00 12.4 125.1 1010 0 2 Image
2006 12 20 06 12.8 123.9 1008 0 2 Image
Japan Meteorological Agency Best Track Data | Correction Date : 2007-01-15
< Typhoon 200622 2006 Season Typhoon 200701 >

Help